Wetterdaten: Woche 29.08.16 - 04.09.16 (KW35)
Datum Zeit Temp. A. Feuchte A. Luftdruck Regen Wind Richtung Taupunkt Windchill Windben
29.08.2016 00:00 19,7 C 78 % 1014,5 hPa 0,0 l/m 0,0 km/h N 15,8 C 19,7 C 0,0 km/h
29.08.2016 01:00 18,8 C 80 % 1014,3 hPa 0,0 l/m 0,0 km/h N 15,3 C 18,8 C 0,0 km/h
29.08.2016 02:00 18,3 C 81 % 1014,1 hPa 0,0 l/m 0,0 km/h N 15,0 C 18,3 C 0,8 km/h
29.08.2016 03:00 18,2 C 81 % 1014,1 hPa 0,0 l/m 0,0 km/h N 14,8 C 18,2 C 0,4 km/h
29.08.2016 04:00 18,1 C 81 % 1013,9 hPa 0,0 l/m 0,0 km/h N 14,9 C 18,1 C 0,0 km/h
29.08.2016 05:00 18,0 C 81 % 1013,8 hPa 0,0 l/m 0,0 km/h N 14,7 C 18,0 C 0,0 km/h
29.08.2016 06:00 18,1 C 81 % 1013,9 hPa 0,0 l/m 0,0 km/h N 14,9 C 18,1 C 0,0 km/h
29.08.2016 07:00 18,8 C 81 % 1014,2 hPa 0,0 l/m 0,0 km/h N 15,4 C 18,8 C 1,2 km/h
29.08.2016 08:00 19,0 C 82 % 1014,7 hPa 0,0 l/m 0,0 km/h N 15,8 C 19,0 C 1,2 km/h
29.08.2016 09:00 20,1 C 81 % 1015,1 hPa 0,0 l/m 0,0 km/h N 16,8 C 20,1 C 0,8 km/h
29.08.2016 10:00 23,0 C 75 % 1015,5 hPa 0,0 l/m 4,6 km/h N 18,3 C 22,6 C 16,5 km/h
29.08.2016 11:00 23,9 C 68 % 1016,5 hPa 0,0 l/m 10,1 km/h N 17,5 C 22,9 C 26,2 km/h
29.08.2016 12:00 22,8 C 70 % 1016,8 hPa 0,0 l/m 6,3 km/h N 16,9 C 22,5 C 19,7 km/h
29.08.2016 13:00 23,1 C 73 % 1016,3 hPa 0,0 l/m 2,8 km/h N 18,0 C 23,1 C 10,5 km/h
29.08.2016 14:00 25,4 C 66 % 1015,9 hPa 0,0 l/m 4,1 km/h N 18,7 C 25,4 C 13,3 km/h
29.08.2016 15:00 25,9 C 67 % 1015,6 hPa 0,0 l/m 2,0 km/h N 19,3 C 25,9 C 11,3 km/h
29.08.2016 16:00 26,0 C 65 % 1015,4 hPa 0,0 l/m 3,9 km/h N 19,0 C 26,0 C 14,9 km/h
29.08.2016 17:00 25,4 C 64 % 1016,0 hPa 0,0 l/m 3,1 km/h N 18,0 C 25,4 C 17,7 km/h
29.08.2016 18:00 23,8 C 66 % 1016,8 hPa 0,0 l/m 2,2 km/h N 17,1 C 23,8 C 12,5 km/h
29.08.2016 19:00 23,0 C 68 % 1016,8 hPa 0,0 l/m 4,8 km/h N 16,8 C 23,0 C 20,1 km/h
29.08.2016 20:00 22,4 C 69 % 1016,9 hPa 0,0 l/m 8,9 km/h N 16,4 C 21,5 C 23,3 km/h
29.08.2016 21:00 22,3 C 68 % 1017,3 hPa 0,0 l/m 9,5 km/h N 16,0 C 21,4 C 23,3 km/h
29.08.2016 22:00 22,1 C 69 % 1017,6 hPa 0,0 l/m 10,4 km/h N 16,0 C 20,8 C 24,1 km/h
29.08.2016 23:00 21,7 C 70 % 1018,1 hPa 0,0 l/m 7,7 km/h N 15,9 C 21,3 C 20,1 km/h
30.08.2016 00:00 21,2 C 72 % 1018,5 hPa 0,0 l/m 3,5 km/h N 15,9 C 21,2 C 12,5 km/h
30.08.2016 01:00 20,9 C 73 % 1018,4 hPa 0,0 l/m 6,2 km/h N 15,8 C 20,7 C 20,5 km/h
30.08.2016 02:00 20,7 C 74 % 1018,5 hPa 0,0 l/m 5,2 km/h N 15,9 C 20,4 C 20,1 km/h
30.08.2016 03:00 20,0 C 76 % 1018,7 hPa 0,0 l/m 2,5 km/h N 15,6 C 20,0 C 11,7 km/h
30.08.2016 04:00 19,8 C 76 % 1019,0 hPa 0,0 l/m 2,3 km/h N 15,4 C 19,8 C 11,3 km/h
30.08.2016 05:00 19,7 C 76 % 1019,4 hPa 0,0 l/m 4,8 km/h N 15,3 C 19,7 C 15,7 km/h
30.08.2016 06:00 19,3 C 76 % 1020,0 hPa 0,0 l/m 4,4 km/h N 15,0 C 19,3 C 16,5 km/h
30.08.2016 07:00 19,3 C 76 % 1020,8 hPa 0,0 l/m 4,1 km/h N 15,0 C 19,3 C 13,7 km/h
30.08.2016 08:00 19,8 C 75 % 1021,3 hPa 0,0 l/m 5,3 km/h N 15,3 C 19,8 C 18,1 km/h
30.08.2016 09:00 20,9 C 72 % 1021,7 hPa 0,0 l/m 5,1 km/h N 15,6 C 20,9 C 18,5 km/h
30.08.2016 10:00 21,9 C 68 % 1022,2 hPa 0,0 l/m 3,4 km/h N 15,8 C 21,9 C 14,9 km/h
30.08.2016 11:00 22,5 C 64 % 1022,4 hPa 0,0 l/m 4,1 km/h N 15,4 C 22,5 C 16,9 km/h
30.08.2016 12:00 23,2 C 62 % 1022,4 hPa 0,0 l/m 5,1 km/h N 15,4 C 23,2 C 18,5 km/h
30.08.2016 13:00 23,9 C 59 % 1022,1 hPa 0,0 l/m 5,6 km/h N 15,3 C 23,9 C 18,1 km/h
30.08.2016 14:00 24,2 C 56 % 1021,8 hPa 0,0 l/m 5,5 km/h N 14,8 C 24,2 C 18,5 km/h
30.08.2016 15:00 24,4 C 54 % 1021,5 hPa 0,0 l/m 5,3 km/h N 14,5 C 24,4 C 16,9 km/h
30.08.2016 16:00 23,9 C 54 % 1021,2 hPa 0,0 l/m 5,4 km/h N 14,1 C 23,8 C 17,3 km/h
30.08.2016 17:00 23,8 C 54 % 1020,9 hPa 0,0 l/m 5,1 km/h N 14,0 C 23,7 C 16,1 km/h
30.08.2016 18:00 23,6 C 54 % 1020,7 hPa 0,0 l/m 3,0 km/h N 13,6 C 23,6 C 13,3 km/h
30.08.2016 19:00 22,9 C 52 % 1021,0 hPa 0,0 l/m 1,7 km/h N 12,3 C 22,9 C 11,7 km/h
30.08.2016 20:00 21,6 C 57 % 1021,7 hPa 0,0 l/m 0,1 km/h N 12,7 C 21,6 C 3,2 km/h
30.08.2016 21:00 19,8 C 61 % 1022,3 hPa 0,0 l/m 0,1 km/h N 11,9 C 19,8 C 2,4 km/h
30.08.2016 22:00 18,8 C 61 % 1022,7 hPa 0,0 l/m 0,1 km/h N 10,9 C 18,8 C 2,8 km/h
30.08.2016 23:00 18,1 C 61 % 1023,2 hPa 0,0 l/m 0,1 km/h N 10,5 C 18,1 C 3,6 km/h
31.08.2016 00:00 16,9 C 67 % 1023,6 hPa 0,0 l/m 0,0 km/h N 10,7 C 16,9 C 1,2 km/h
31.08.2016 01:00 15,7 C 70 % 1023,5 hPa 0,0 l/m 0,0 km/h N 10,1 C 15,7 C 0,4 km/h
31.08.2016 02:00 14,1 C 73 % 1023,5 hPa 0,0 l/m 0,0 km/h N 9,3 C 14,1 C 0,4 km/h
31.08.2016 03:00 13,7 C 73 % 1023,5 hPa 0,0 l/m 0,0 km/h N 9,0 C 13,7 C 0,8 km/h
31.08.2016 04:00 12,5 C 77 % 1023,4 hPa 0,0 l/m 0,0 km/h N 8,5 C 12,5 C 0,0 km/h
31.08.2016 05:00 11,5 C 79 % 1023,3 hPa 0,0 l/m 0,0 km/h N 8,0 C 11,5 C 0,0 km/h
31.08.2016 06:00 10,9 C 81 % 1023,6 hPa 0,0 l/m 0,0 km/h N 7,7 C 10,9 C 1,2 km/h
31.08.2016 07:00 11,5 C 82 % 1023,6 hPa 0,0 l/m 0,0 km/h N 8,4 C 11,5 C 0,8 km/h
31.08.2016 08:00 13,6 C 77 % 1023,4 hPa 0,0 l/m 0,2 km/h N 9,6 C 13,6 C 1,6 km/h
31.08.2016 09:00 17,5 C 63 % 1023,3 hPa 0,0 l/m 0,1 km/h N 10,3 C 17,5 C 3,6 km/h
31.08.2016 10:00 20,5 C 54 % 1023,2 hPa 0,0 l/m 0,2 km/h N 11,0 C 20,5 C 3,2 km/h
31.08.2016 11:00 22,0 C 53 % 1023,1 hPa 0,0 l/m 0,5 km/h N 11,9 C 22,0 C 6,4 km/h
31.08.2016 12:00 23,3 C 49 % 1022,7 hPa 0,0 l/m 0,5 km/h N 11,8 C 23,3 C 6,0 km/h
31.08.2016 13:00 24,4 C 47 % 1022,3 hPa 0,0 l/m 0,8 km/h N 12,3 C 24,4 C 8,8 km/h
31.08.2016 14:00 24,5 C 48 % 1021,6 hPa 0,0 l/m 1,1 km/h N 12,6 C 24,5 C 8,0 km/h
31.08.2016 15:00 24,5 C 47 % 1021,0 hPa 0,0 l/m 1,2 km/h N 12,3 C 24,5 C 8,8 km/h
31.08.2016 16:00 24,3 C 48 % 1020,6 hPa 0,0 l/m 1,0 km/h N 12,5 C 24,3 C 8,1 km/h
31.08.2016 17:00 24,1 C 46 % 1020,4 hPa 0,0 l/m 0,9 km/h N 11,7 C 24,1 C 8,9 km/h
31.08.2016 18:00 23,6 C 45 % 1020,1 hPa 0,0 l/m 0,6 km/h N 11,0 C 23,6 C 6,8 km/h
31.08.2016 19:00 22,7 C 50 % 1019,8 hPa 0,0 l/m 0,2 km/h N 11,8 C 22,7 C 5,6 km/h
31.08.2016 20:00 19,9 C 59 % 1020,2 hPa 0,0 l/m 0,0 km/h N 11,7 C 19,9 C 0,0 km/h
31.08.2016 21:00 17,1 C 69 % 1020,5 hPa 0,0 l/m 0,0 km/h N 11,2 C 17,1 C 0,4 km/h
31.08.2016 22:00 15,4 C 75 % 1020,5 hPa 0,0 l/m 0,0 km/h N 10,9 C 15,4 C 0,0 km/h
31.08.2016 23:00 14,3 C 79 % 1020,6 hPa 0,0 l/m 0,0 km/h N 10,6 C 14,3 C 0,0 km/h
01.09.2016 00:00 13,4 C 81 % 1020,4 hPa 0,0 l/m 0,0 km/h N 10,2 C 13,4 C 0,0 km/h
01.09.2016 01:00 12,7 C 82 % 1020,2 hPa 0,0 l/m 0,0 km/h N 9,7 C 12,7 C 0,0 km/h
01.09.2016 02:00 12,2 C 82 % 1020,1 hPa 0,0 l/m 0,0 km/h N 9,2 C 12,2 C 0,0 km/h
01.09.2016 03:00 11,8 C 82 % 1020,0 hPa 0,0 l/m 0,0 km/h N 8,8 C 11,8 C 0,0 km/h
01.09.2016 04:00 11,3 C 82 % 1020,1 hPa 0,0 l/m 0,0 km/h N 8,4 C 11,3 C 0,0 km/h
01.09.2016 05:00 11,0 C 82 % 1020,2 hPa 0,0 l/m 0,0 km/h N 8,0 C 11,0 C 0,0 km/h
01.09.2016 06:00 10,8 C 82 % 1020,5 hPa 0,0 l/m 0,0 km/h N 7,9 C 10,8 C 0,0 km/h
01.09.2016 07:00 11,5 C 82 % 1020,8 hPa 0,0 l/m 0,0 km/h N 8,5 C 11,5 C 0,0 km/h
01.09.2016 08:00 13,7 C 82 % 1021,1 hPa 0,0 l/m 0,0 km/h N 10,7 C 13,7 C 1,2 km/h
01.09.2016 09:00 17,4 C 79 % 1021,3 hPa 0,0 l/m 0,2 km/h N 13,7 C 17,4 C 3,6 km/h
01.09.2016 10:00 22,3 C 63 % 1021,2 hPa 0,0 l/m 0,2 km/h N 14,8 C 22,3 C 3,6 km/h
01.09.2016 11:00 24,5 C 57 % 1020,8 hPa 0,0 l/m 0,3 km/h N 15,5 C 24,5 C 5,2 km/h
01.09.2016 12:00 25,5 C 55 % 1020,3 hPa 0,0 l/m 1,3 km/h N 15,8 C 25,5 C 7,7 km/h
01.09.2016 13:00 25,7 C 50 % 1019,9 hPa 0,0 l/m 4,5 km/h N 14,4 C 25,7 C 16,5 km/h
01.09.2016 14:00 26,0 C 47 % 1019,5 hPa 0,0 l/m 5,2 km/h N 13,8 C 26,0 C 16,9 km/h
01.09.2016 15:00 26,2 C 50 % 1019,0 hPa 0,0 l/m 3,0 km/h N 14,9 C 26,2 C 12,5 km/h
01.09.2016 16:00 26,4 C 51 % 1018,7 hPa 0,0 l/m 2,9 km/h N 15,3 C 26,4 C 12,1 km/h
01.09.2016 17:00 26,4 C 51 % 1018,4 hPa 0,0 l/m 1,1 km/h N 15,4 C 26,4 C 8,9 km/h
01.09.2016 18:00 26,2 C 50 % 1018,3 hPa 0,0 l/m 1,1 km/h N 15,0 C 26,2 C 9,3 km/h
01.09.2016 19:00 25,1 C 55 % 1018,4 hPa 0,0 l/m 0,1 km/h N 15,5 C 25,1 C 0,8 km/h
01.09.2016 20:00 22,1 C 66 % 1018,9 hPa 0,0 l/m 0,0 km/h N 15,3 C 22,1 C 0,0 km/h
01.09.2016 21:00 19,8 C 73 % 1018,9 hPa 0,0 l/m 0,0 km/h N 14,7 C 19,8 C 0,0 km/h
01.09.2016 22:00 18,9 C 77 % 1018,9 hPa 0,0 l/m 0,0 km/h N 14,6 C 18,9 C 0,4 km/h
01.09.2016 23:00 18,7 C 76 % 1019,1 hPa 0,0 l/m 0,0 km/h N 14,3 C 18,7 C 0,8 km/h
02.09.2016 00:00 19,4 C 74 % 1019,1 hPa 0,0 l/m 2,0 km/h N 14,7 C 19,4 C 9,6 km/h
02.09.2016 01:00 21,2 C 67 % 1018,8 hPa 0,0 l/m 0,9 km/h N 14,7 C 21,2 C 5,2 km/h
02.09.2016 02:00 20,0 C 70 % 1018,8 hPa 0,0 l/m 0,0 km/h N 14,2 C 20,0 C 1,2 km/h
02.09.2016 03:00 20,0 C 70 % 1018,5 hPa 0,0 l/m 0,4 km/h N 14,4 C 20,0 C 8,0 km/h
02.09.2016 04:00 20,0 C 70 % 1018,4 hPa 0,0 l/m 0,1 km/h N 14,2 C 20,0 C 1,6 km/h
02.09.2016 05:00 19,3 C 73 % 1018,3 hPa 0,0 l/m 0,1 km/h N 14,3 C 19,3 C 3,6 km/h
02.09.2016 06:00 20,7 C 71 % 1018,5 hPa 0,0 l/m 1,8 km/h N 15,3 C 20,7 C 10,5 km/h
02.09.2016 07:00 21,4 C 71 % 1018,7 hPa 0,0 l/m 1,5 km/h N 15,9 C 21,4 C 10,1 km/h
02.09.2016 08:00 22,2 C 69 % 1019,0 hPa 0,0 l/m 3,0 km/h N 16,3 C 22,2 C 12,5 km/h
02.09.2016 09:00 23,4 C 66 % 1019,3 hPa 0,0 l/m 3,3 km/h N 16,6 C 23,4 C 14,9 km/h
02.09.2016 10:00 22,3 C 70 % 1019,5 hPa 0,0 l/m 2,5 km/h N 16,5 C 22,3 C 13,3 km/h
02.09.2016 11:00 24,5 C 62 % 1019,3 hPa 0,0 l/m 6,9 km/h N 16,8 C 24,3 C 23,3 km/h
02.09.2016 12:00 25,8 C 57 % 1018,9 hPa 0,0 l/m 6,8 km/h N 16,6 C 25,5 C 18,9 km/h
02.09.2016 13:00 26,2 C 56 % 1018,5 hPa 0,0 l/m 5,7 km/h N 16,6 C 26,1 C 17,3 km/h
02.09.2016 14:00 25,2 C 60 % 1018,3 hPa 0,0 l/m 4,3 km/h N 16,7 C 25,2 C 14,9 km/h
02.09.2016 15:00 23,8 C 65 % 1018,0 hPa 0,0 l/m 3,8 km/h N 16,8 C 23,8 C 13,3 km/h
02.09.2016 16:00 24,4 C 62 % 1018,0 hPa 0,0 l/m 3,3 km/h N 16,5 C 24,4 C 14,9 km/h
02.09.2016 17:00 23,2 C 67 % 1017,6 hPa 0,0 l/m 1,9 km/h N 16,7 C 23,2 C 10,1 km/h
02.09.2016 18:00 22,6 C 67 % 1017,4 hPa 0,0 l/m 0,1 km/h N 16,2 C 22,6 C 3,2 km/h
02.09.2016 19:00 21,8 C 67 % 1017,6 hPa 0,0 l/m 0,0 km/h N 15,3 C 21,8 C 0,4 km/h
02.09.2016 20:00 20,3 C 71 % 1018,0 hPa 0,0 l/m 0,0 km/h N 14,8 C 20,3 C 0,0 km/h
02.09.2016 21:00 18,4 C 76 % 1018,3 hPa 0,0 l/m 0,0 km/h N 14,1 C 18,4 C 0,0 km/h
02.09.2016 22:00 17,2 C 80 % 1018,6 hPa 0,0 l/m 0,0 km/h N 13,6 C 17,2 C 0,0 km/h
02.09.2016 23:00 16,5 C 81 % 1018,7 hPa 0,0 l/m 0,0 km/h N 13,2 C 16,5 C 0,4 km/h
03.09.2016 00:00 15,9 C 81 % 1018,7 hPa 0,0 l/m 0,1 km/h N 12,6 C 15,9 C 2,8 km/h
03.09.2016 01:00 15,6 C 82 % 1018,7 hPa 0,0 l/m 0,2 km/h N 12,6 C 15,6 C 2,4 km/h
03.09.2016 02:00 15,6 C 82 % 1018,7 hPa 0,0 l/m 0,0 km/h N 12,4 C 15,6 C 2,0 km/h
03.09.2016 03:00 14,9 C 82 % 1018,6 hPa 0,0 l/m 0,0 km/h N 11,9 C 14,9 C 0,4 km/h
03.09.2016 04:00 14,6 C 82 % 1018,6 hPa 0,0 l/m 0,0 km/h N 11,6 C 14,6 C 0,0 km/h
03.09.2016 05:00 14,5 C 82 % 1018,5 hPa 0,0 l/m 0,0 km/h N 11,5 C 14,5 C 0,8 km/h
03.09.2016 06:00 14,4 C 82 % 1018,4 hPa 0,0 l/m 0,0 km/h N 11,3 C 14,4 C 0,4 km/h
03.09.2016 07:00 14,4 C 82 % 1018,6 hPa 0,0 l/m 0,0 km/h N 11,4 C 14,4 C 0,0 km/h
03.09.2016 08:00 16,3 C 82 % 1018,7 hPa 0,0 l/m 0,0 km/h N 13,2 C 16,3 C 0,8 km/h
03.09.2016 09:00 20,5 C 75 % 1018,9 hPa 0,0 l/m 0,0 km/h N 15,9 C 20,5 C 1,2 km/h
03.09.2016 10:00 22,9 C 68 % 1018,8 hPa 0,0 l/m 0,1 km/h N 16,5 C 22,9 C 2,4 km/h
03.09.2016 11:00 24,2 C 62 % 1018,8 hPa 0,0 l/m 0,0 km/h N 16,3 C 24,2 C 1,6 km/h
03.09.2016 12:00 26,0 C 58 % 1018,3 hPa 0,0 l/m 0,1 km/h N 17,0 C 26,0 C 2,4 km/h
03.09.2016 13:00 27,0 C 53 % 1017,8 hPa 0,0 l/m 2,6 km/h N 16,6 C 27,0 C 10,5 km/h
03.09.2016 14:00 27,0 C 49 % 1017,3 hPa 0,0 l/m 3,4 km/h N 15,3 C 27,0 C 14,5 km/h
03.09.2016 15:00 27,3 C 43 % 1016,9 hPa 0,0 l/m 2,8 km/h N 13,6 C 27,3 C 13,3 km/h
03.09.2016 16:00 27,5 C 43 % 1016,5 hPa 0,0 l/m 3,5 km/h N 13,7 C 27,5 C 13,7 km/h
03.09.2016 17:00 27,2 C 44 % 1016,2 hPa 0,0 l/m 1,4 km/h N 13,7 C 27,2 C 9,3 km/h
03.09.2016 18:00 26,8 C 46 % 1016,1 hPa 0,0 l/m 0,3 km/h N 14,2 C 26,8 C 4,0 km/h
03.09.2016 19:00 25,0 C 54 % 1016,2 hPa 0,0 l/m 0,0 km/h N 14,9 C 25,0 C 0,4 km/h
03.09.2016 20:00 22,0 C 62 % 1016,5 hPa 0,0 l/m 0,0 km/h N 14,4 C 22,0 C 0,0 km/h
03.09.2016 21:00 20,3 C 68 % 1016,5 hPa 0,0 l/m 0,0 km/h N 14,1 C 20,3 C 0,0 km/h
03.09.2016 22:00 19,6 C 71 % 1016,4 hPa 0,0 l/m 0,0 km/h N 14,2 C 19,6 C 0,4 km/h
03.09.2016 23:00 19,1 C 73 % 1016,4 hPa 0,0 l/m 0,0 km/h N 14,1 C 19,1 C 0,0 km/h
04.09.2016 00:00 19,2 C 74 % 1016,1 hPa 0,0 l/m 0,0 km/h N 14,4 C 19,2 C 1,2 km/h
04.09.2016 01:00 19,7 C 71 % 1016,0 hPa 0,0 l/m 0,4 km/h N 14,3 C 19,7 C 2,4 km/h
04.09.2016 02:00 19,0 C 75 % 1015,8 hPa 0,0 l/m 0,0 km/h N 14,3 C 19,0 C 0,0 km/h
04.09.2016 03:00 18,0 C 77 % 1015,6 hPa 0,0 l/m 0,0 km/h N 13,9 C 18,0 C 0,0 km/h
04.09.2016 04:00 17,3 C 79 % 1015,5 hPa 0,0 l/m 0,0 km/h N 13,6 C 17,3 C 0,0 km/h
04.09.2016 05:00 16,6 C 80 % 1015,4 hPa 0,0 l/m 0,0 km/h N 13,2 C 16,6 C 0,0 km/h
04.09.2016 06:00 16,0 C 81 % 1015,4 hPa 0,0 l/m 0,0 km/h N 12,7 C 16,0 C 0,4 km/h
04.09.2016 07:00 17,0 C 82 % 1015,7 hPa 0,0 l/m 0,0 km/h N 13,8 C 17,0 C 1,6 km/h
04.09.2016 08:00 18,0 C 81 % 1015,8 hPa 0,0 l/m 0,0 km/h N 14,7 C 18,0 C 0,0 km/h
04.09.2016 09:00 21,0 C 78 % 1015,7 hPa 0,0 l/m 0,0 km/h N 16,9 C 21,0 C 1,2 km/h
04.09.2016 10:00 25,0 C 65 % 1015,3 hPa 0,0 l/m 0,1 km/h N 17,9 C 25,0 C 2,4 km/h
04.09.2016 11:00 27,2 C 55 % 1014,7 hPa 0,0 l/m 0,5 km/h N 17,2 C 27,2 C 4,4 km/h
04.09.2016 12:00 30,3 C 45 % 1013,8 hPa 0,0 l/m 0,8 km/h N 17,1 C 30,3 C 6,8 km/h
04.09.2016 13:00 30,8 C 38 % 1013,0 hPa 0,0 l/m 1,0 km/h N 14,7 C 30,8 C 6,4 km/h
04.09.2016 14:00 30,4 C 36 % 1012,4 hPa 0,0 l/m 1,8 km/h N 13,5 C 30,4 C 10,1 km/h
04.09.2016 15:00 29,6 C 39 % 1012,0 hPa 0,0 l/m 3,6 km/h N 14,0 C 29,6 C 15,3 km/h
04.09.2016 16:00 29,2 C 42 % 1011,7 hPa 0,0 l/m 4,7 km/h N 14,7 C 29,2 C 20,5 km/h
04.09.2016 17:00 28,3 C 45 % 1011,4 hPa 0,0 l/m 3,3 km/h N 15,2 C 28,3 C 15,3 km/h
04.09.2016 18:00 27,3 C 48 % 1011,2 hPa 0,0 l/m 0,6 km/h N 15,4 C 27,3 C 5,6 km/h
04.09.2016 19:00 26,2 C 52 % 1011,3 hPa 0,0 l/m 0,3 km/h N 15,5 C 26,2 C 4,4 km/h
04.09.2016 20:00 24,6 C 60 % 1011,4 hPa 0,0 l/m 0,0 km/h N 16,3 C 24,6 C 1,6 km/h
04.09.2016 21:00 23,0 C 68 % 1011,2 hPa 0,0 l/m 0,0 km/h N 16,7 C 23,0 C 0,8 km/h
04.09.2016 22:00 22,1 C 70 % 1011,2 hPa 0,0 l/m 0,0 km/h N 16,4 C 22,1 C 0,4 km/h
04.09.2016 23:00 21,8 C 73 % 1010,8 hPa 0,0 l/m 0,0 km/h N 16,7 C 21,8 C 0,0 km/h
Min-Datum _ 31.08.16 04.09.16 04.09.16 - 29.08.16 - 31.08.16 31.08.16 29.08.16
_ Min-Zeit 06:15 13:45 23:45 - 00:00 - 06:00 06:30 00:00
Minimum _ 10,8 C 34 % 1010,7 hPa - 0,0 km/h - 7,6 C 10,8 C 0,0 km/h
Max-Datum _ 04.09.16 29.08.16 31.08.16 29.08.16 29.08.16 - 29.08.16 04.09.16 29.08.16
_ Max-Zeit 13:30 04:15 06:15 00:00 20:30 - 15:45 13:30 10:30
Maximum _ 31,2 C 82 % 1023,7 hPa 0,0 l/m 13,0 km/h
N
- 19,8 C 31,2 C 30,6 km/h
N
Durchschnitt _ 20,9 C 67 % 1018,3 hPa #0,0 l/m 1,6 km/h N 14,1 C 20,8 C 6,9 km/h